sensor_id;sensor_type;location;lat;lon;timestamp;temperature;humidity
22112;DHT22;11222;50.872;4.312;2023-02-20T00:00:43;6.70;99.90
22112;DHT22;11222;50.872;4.312;2023-02-20T00:03:09;6.70;99.90
22112;DHT22;11222;50.872;4.312;2023-02-20T00:05:36;6.80;99.90
22112;DHT22;11222;50.872;4.312;2023-02-20T00:08:02;6.80;99.90
22112;DHT22;11222;50.872;4.312;2023-02-20T00:10:28;6.80;99.90
22112;DHT22;11222;50.872;4.312;2023-02-20T00:12:54;6.80;99.90
22112;DHT22;11222;50.872;4.312;2023-02-20T00:15:20;6.70;99.90
22112;DHT22;11222;50.872;4.312;2023-02-20T00:17:47;6.70;99.90
22112;DHT22;11222;50.872;4.312;2023-02-20T00:20:14;6.70;99.90
22112;DHT22;11222;50.872;4.312;2023-02-20T00:22:40;6.70;99.90
22112;DHT22;11222;50.872;4.312;2023-02-20T00:25:06;6.70;99.90
22112;DHT22;11222;50.872;4.312;2023-02-20T00:27:32;6.70;99.90
22112;DHT22;11222;50.872;4.312;2023-02-20T00:29:58;6.70;99.90
22112;DHT22;11222;50.872;4.312;2023-02-20T00:32:24;6.60;99.90
22112;DHT22;11222;50.872;4.312;2023-02-20T00:34:50;6.60;99.90
22112;DHT22;11222;50.872;4.312;2023-02-20T00:37:16;6.70;99.90
22112;DHT22;11222;50.872;4.312;2023-02-20T00:39:41;6.60;99.90
22112;DHT22;11222;50.872;4.312;2023-02-20T00:42:08;6.60;99.90
22112;DHT22;11222;50.872;4.312;2023-02-20T00:44:34;6.60;99.90
22112;DHT22;11222;50.872;4.312;2023-02-20T00:46:59;6.50;99.90
22112;DHT22;11222;50.872;4.312;2023-02-20T00:49:25;6.50;99.90
22112;DHT22;11222;50.872;4.312;2023-02-20T00:51:52;6.50;99.90
22112;DHT22;11222;50.872;4.312;2023-02-20T00:54:17;6.60;99.90
22112;DHT22;11222;50.872;4.312;2023-02-20T00:56:43;6.70;99.90
22112;DHT22;11222;50.872;4.312;2023-02-20T00:59:09;6.70;99.90
22112;DHT22;11222;50.872;4.312;2023-02-20T01:01:35;6.80;99.90
22112;DHT22;11222;50.872;4.312;2023-02-20T01:04:00;6.80;99.90
22112;DHT22;11222;50.872;4.312;2023-02-20T01:06:26;6.80;99.90
22112;DHT22;11222;50.872;4.312;2023-02-20T01:08:52;6.80;99.90
22112;DHT22;11222;50.872;4.312;2023-02-20T01:11:17;6.90;99.90
22112;DHT22;11222;50.872;4.312;2023-02-20T01:13:43;6.80;99.90
22112;DHT22;11222;50.872;4.312;2023-02-20T01:16:09;6.90;99.90
22112;DHT22;11222;50.872;4.312;2023-02-20T01:18:34;6.90;99.90
22112;DHT22;11222;50.872;4.312;2023-02-20T01:21:00;6.90;99.90
22112;DHT22;11222;50.872;4.312;2023-02-20T01:23:26;6.90;99.90
22112;DHT22;11222;50.872;4.312;2023-02-20T01:25:51;6.90;99.90
22112;DHT22;11222;50.872;4.312;2023-02-20T01:28:17;6.90;99.90
22112;DHT22;11222;50.872;4.312;2023-02-20T01:30:43;7.00;99.90
22112;DHT22;11222;50.872;4.312;2023-02-20T01:33:08;7.00;99.90
22112;DHT22;11222;50.872;4.312;2023-02-20T01:35:35;7.00;99.90
22112;DHT22;11222;50.872;4.312;2023-02-20T01:38:01;7.00;99.90
22112;DHT22;11222;50.872;4.312;2023-02-20T01:40:32;6.90;99.90
22112;DHT22;11222;50.872;4.312;2023-02-20T01:42:58;6.90;99.90
22112;DHT22;11222;50.872;4.312;2023-02-20T01:47:51;7.00;99.90
22112;DHT22;11222;50.872;4.312;2023-02-20T01:50:20;7.00;99.90
22112;DHT22;11222;50.872;4.312;2023-02-20T01:52:50;7.00;99.90
22112;DHT22;11222;50.872;4.312;2023-02-20T01:55:20;7.00;99.90
22112;DHT22;11222;50.872;4.312;2023-02-20T01:57:54;7.10;99.90
22112;DHT22;11222;50.872;4.312;2023-02-20T02:00:21;7.10;99.90
22112;DHT22;11222;50.872;4.312;2023-02-20T02:02:55;7.10;99.90
22112;DHT22;11222;50.872;4.312;2023-02-20T02:05:22;7.10;99.90
22112;DHT22;11222;50.872;4.312;2023-02-20T02:07:48;7.10;99.90
22112;DHT22;11222;50.872;4.312;2023-02-20T02:10:18;7.20;99.90
22112;DHT22;11222;50.872;4.312;2023-02-20T02:12:47;7.20;99.90
22112;DHT22;11222;50.872;4.312;2023-02-20T02:15:16;7.30;99.90
22112;DHT22;11222;50.872;4.312;2023-02-20T02:20:57;7.30;99.90
22112;DHT22;11222;50.872;4.312;2023-02-20T02:43:00;7.50;99.90
22112;DHT22;11222;50.872;4.312;2023-02-20T02:48:27;7.60;99.90
22112;DHT22;11222;50.872;4.312;2023-02-20T02:51:04;7.50;99.90
22112;DHT22;11222;50.872;4.312;2023-02-20T02:53:32;7.50;99.90
22112;DHT22;11222;50.872;4.312;2023-02-20T02:55:57;7.50;99.90
22112;DHT22;11222;50.872;4.312;2023-02-20T02:58:43;7.60;99.90
22112;DHT22;11222;50.872;4.312;2023-02-20T03:01:09;7.50;99.90
22112;DHT22;11222;50.872;4.312;2023-02-20T03:03:37;7.60;99.90
22112;DHT22;11222;50.872;4.312;2023-02-20T03:08:44;7.70;99.90
22112;DHT22;11222;50.872;4.312;2023-02-20T03:11:17;7.60;99.90
22112;DHT22;11222;50.872;4.312;2023-02-20T03:14:06;7.60;99.90
22112;DHT22;11222;50.872;4.312;2023-02-20T03:19:26;7.60;99.90
22112;DHT22;11222;50.872;4.312;2023-02-20T03:21:55;7.60;99.90
22112;DHT22;11222;50.872;4.312;2023-02-20T03:24:23;7.60;99.90
22112;DHT22;11222;50.872;4.312;2023-02-20T03:26:52;7.60;99.90
22112;DHT22;11222;50.872;4.312;2023-02-20T03:29:33;7.70;99.90
22112;DHT22;11222;50.872;4.312;2023-02-20T03:32:06;7.70;99.90
22112;DHT22;11222;50.872;4.312;2023-02-20T03:34:53;7.70;99.90
22112;DHT22;11222;50.872;4.312;2023-02-20T03:37:41;7.70;99.90
22112;DHT22;11222;50.872;4.312;2023-02-20T03:40:28;7.70;99.90
22112;DHT22;11222;50.872;4.312;2023-02-20T03:43:17;7.70;99.90
22112;DHT22;11222;50.872;4.312;2023-02-20T03:46:01;7.70;99.90
22112;DHT22;11222;50.872;4.312;2023-02-20T03:48:43;7.70;99.90
22112;DHT22;11222;50.872;4.312;2023-02-20T03:51:11;7.70;99.90
22112;DHT22;11222;50.872;4.312;2023-02-20T03:53:39;7.70;99.90
22112;DHT22;11222;50.872;4.312;2023-02-20T03:56:08;7.70;99.90
22112;DHT22;11222;50.872;4.312;2023-02-20T03:58:38;7.70;99.90
22112;DHT22;11222;50.872;4.312;2023-02-20T04:01:07;7.70;99.90
22112;DHT22;11222;50.872;4.312;2023-02-20T04:03:37;7.70;99.90
22112;DHT22;11222;50.872;4.312;2023-02-20T04:06:05;7.70;99.90
22112;DHT22;11222;50.872;4.312;2023-02-20T04:08:37;7.70;99.90
22112;DHT22;11222;50.872;4.312;2023-02-20T04:11:11;7.80;99.90
22112;DHT22;11222;50.872;4.312;2023-02-20T04:13:39;7.70;99.90
22112;DHT22;11222;50.872;4.312;2023-02-20T04:16:06;7.80;99.90
22112;DHT22;11222;50.872;4.312;2023-02-20T04:18:33;7.80;99.90
22112;DHT22;11222;50.872;4.312;2023-02-20T04:21:02;7.70;99.90
22112;DHT22;11222;50.872;4.312;2023-02-20T04:23:30;7.70;99.90
22112;DHT22;11222;50.872;4.312;2023-02-20T04:26:04;7.80;99.90
22112;DHT22;11222;50.872;4.312;2023-02-20T04:28:32;7.70;99.90
22112;DHT22;11222;50.872;4.312;2023-02-20T04:30:58;7.70;99.90
22112;DHT22;11222;50.872;4.312;2023-02-20T04:33:23;7.70;99.90
22112;DHT22;11222;50.872;4.312;2023-02-20T04:35:49;7.70;99.90
22112;DHT22;11222;50.872;4.312;2023-02-20T04:38:15;7.80;99.90
22112;DHT22;11222;50.872;4.312;2023-02-20T04:40:41;7.70;99.90
22112;DHT22;11222;50.872;4.312;2023-02-20T04:43:06;7.80;99.90
22112;DHT22;11222;50.872;4.312;2023-02-20T04:45:32;7.80;99.90
22112;DHT22;11222;50.872;4.312;2023-02-20T04:47:58;7.80;99.90
22112;DHT22;11222;50.872;4.312;2023-02-20T04:50:25;7.80;99.90
22112;DHT22;11222;50.872;4.312;2023-02-20T04:52:51;7.80;99.90
22112;DHT22;11222;50.872;4.312;2023-02-20T04:55:17;7.80;99.90
22112;DHT22;11222;50.872;4.312;2023-02-20T04:57:45;7.80;99.90
22112;DHT22;11222;50.872;4.312;2023-02-20T05:00:12;7.80;99.90
22112;DHT22;11222;50.872;4.312;2023-02-20T05:02:39;7.80;99.90
22112;DHT22;11222;50.872;4.312;2023-02-20T05:05:05;7.90;99.90
22112;DHT22;11222;50.872;4.312;2023-02-20T05:07:32;7.80;99.90
22112;DHT22;11222;50.872;4.312;2023-02-20T05:09:59;7.80;99.90
22112;DHT22;11222;50.872;4.312;2023-02-20T05:12:24;7.90;99.90
22112;DHT22;11222;50.872;4.312;2023-02-20T05:14:50;7.90;99.90
22112;DHT22;11222;50.872;4.312;2023-02-20T05:17:15;7.80;99.90
22112;DHT22;11222;50.872;4.312;2023-02-20T05:19:41;7.90;99.90
22112;DHT22;11222;50.872;4.312;2023-02-20T05:22:10;7.90;99.90
22112;DHT22;11222;50.872;4.312;2023-02-20T05:24:48;7.80;99.90
22112;DHT22;11222;50.872;4.312;2023-02-20T05:27:15;7.80;99.90
22112;DHT22;11222;50.872;4.312;2023-02-20T05:29:46;7.80;99.90
22112;DHT22;11222;50.872;4.312;2023-02-20T05:32:13;7.80;99.90
22112;DHT22;11222;50.872;4.312;2023-02-20T05:34:39;7.90;99.90
22112;DHT22;11222;50.872;4.312;2023-02-20T05:37:05;7.90;99.90
22112;DHT22;11222;50.872;4.312;2023-02-20T05:39:31;7.90;99.90
22112;DHT22;11222;50.872;4.312;2023-02-20T05:41:56;7.80;99.90
22112;DHT22;11222;50.872;4.312;2023-02-20T05:44:22;7.80;99.90
22112;DHT22;11222;50.872;4.312;2023-02-20T05:46:48;7.80;99.90
22112;DHT22;11222;50.872;4.312;2023-02-20T05:49:16;7.90;99.90
22112;DHT22;11222;50.872;4.312;2023-02-20T05:51:41;7.80;99.90
22112;DHT22;11222;50.872;4.312;2023-02-20T05:54:07;7.80;99.90
22112;DHT22;11222;50.872;4.312;2023-02-20T05:56:33;7.80;99.90
22112;DHT22;11222;50.872;4.312;2023-02-20T05:58:59;7.70;99.90
22112;DHT22;11222;50.872;4.312;2023-02-20T06:01:28;7.70;99.90
22112;DHT22;11222;50.872;4.312;2023-02-20T06:03:53;7.70;99.90
22112;DHT22;11222;50.872;4.312;2023-02-20T06:06:20;7.70;99.90
22112;DHT22;11222;50.872;4.312;2023-02-20T06:08:46;7.70;99.90
22112;DHT22;11222;50.872;4.312;2023-02-20T06:11:13;7.70;99.90
22112;DHT22;11222;50.872;4.312;2023-02-20T06:13:43;7.70;99.90
22112;DHT22;11222;50.872;4.312;2023-02-20T06:16:10;7.70;99.90
22112;DHT22;11222;50.872;4.312;2023-02-20T06:18:40;7.70;99.90
22112;DHT22;11222;50.872;4.312;2023-02-20T06:21:10;7.70;99.90
22112;DHT22;11222;50.872;4.312;2023-02-20T06:23:36;7.70;99.90
22112;DHT22;11222;50.872;4.312;2023-02-20T06:26:03;7.60;99.90
22112;DHT22;11222;50.872;4.312;2023-02-20T06:28:29;7.60;99.90
22112;DHT22;11222;50.872;4.312;2023-02-20T06:30:55;7.60;99.90
22112;DHT22;11222;50.872;4.312;2023-02-20T06:33:21;7.70;99.90
22112;DHT22;11222;50.872;4.312;2023-02-20T06:35:46;7.70;99.90
22112;DHT22;11222;50.872;4.312;2023-02-20T06:38:12;7.60;99.90
22112;DHT22;11222;50.872;4.312;2023-02-20T06:40:38;7.60;99.90
22112;DHT22;11222;50.872;4.312;2023-02-20T06:43:04;7.60;99.90
22112;DHT22;11222;50.872;4.312;2023-02-20T06:45:29;7.60;99.90
22112;DHT22;11222;50.872;4.312;2023-02-20T06:47:55;7.60;99.90
22112;DHT22;11222;50.872;4.312;2023-02-20T06:50:21;7.70;99.90
22112;DHT22;11222;50.872;4.312;2023-02-20T06:52:47;7.70;99.90
22112;DHT22;11222;50.872;4.312;2023-02-20T06:55:13;7.70;99.90
22112;DHT22;11222;50.872;4.312;2023-02-20T06:57:38;7.70;99.90
22112;DHT22;11222;50.872;4.312;2023-02-20T07:00:05;7.70;99.90
22112;DHT22;11222;50.872;4.312;2023-02-20T07:02:31;7.70;99.90
22112;DHT22;11222;50.872;4.312;2023-02-20T07:04:56;7.70;99.90
22112;DHT22;11222;50.872;4.312;2023-02-20T07:07:22;7.70;99.90
22112;DHT22;11222;50.872;4.312;2023-02-20T07:09:48;7.80;99.90
22112;DHT22;11222;50.872;4.312;2023-02-20T07:12:13;7.80;99.90
22112;DHT22;11222;50.872;4.312;2023-02-20T07:14:39;7.90;99.90
22112;DHT22;11222;50.872;4.312;2023-02-20T07:17:05;7.90;99.90
22112;DHT22;11222;50.872;4.312;2023-02-20T07:19:30;7.80;99.90
22112;DHT22;11222;50.872;4.312;2023-02-20T07:21:56;7.90;99.90
22112;DHT22;11222;50.872;4.312;2023-02-20T07:24:22;7.90;99.90
22112;DHT22;11222;50.872;4.312;2023-02-20T07:26:48;8.00;99.90
22112;DHT22;11222;50.872;4.312;2023-02-20T07:29:14;7.90;99.90
22112;DHT22;11222;50.872;4.312;2023-02-20T07:31:40;7.90;99.90
22112;DHT22;11222;50.872;4.312;2023-02-20T07:34:06;7.90;99.90
22112;DHT22;11222;50.872;4.312;2023-02-20T07:36:32;7.90;99.90
22112;DHT22;11222;50.872;4.312;2023-02-20T07:39:00;8.00;99.90
22112;DHT22;11222;50.872;4.312;2023-02-20T07:41:28;8.00;99.90
22112;DHT22;11222;50.872;4.312;2023-02-20T07:43:54;8.00;99.90
22112;DHT22;11222;50.872;4.312;2023-02-20T07:46:21;8.00;99.90
22112;DHT22;11222;50.872;4.312;2023-02-20T07:48:47;8.10;99.90
22112;DHT22;11222;50.872;4.312;2023-02-20T07:51:14;8.10;99.90
22112;DHT22;11222;50.872;4.312;2023-02-20T07:53:47;8.10;99.90
22112;DHT22;11222;50.872;4.312;2023-02-20T07:56:12;8.10;99.90
22112;DHT22;11222;50.872;4.312;2023-02-20T07:58:38;8.20;99.90
22112;DHT22;11222;50.872;4.312;2023-02-20T08:01:04;8.20;99.90
22112;DHT22;11222;50.872;4.312;2023-02-20T08:03:29;8.20;99.90
22112;DHT22;11222;50.872;4.312;2023-02-20T08:05:55;8.20;99.90
22112;DHT22;11222;50.872;4.312;2023-02-20T08:08:21;8.20;99.90
22112;DHT22;11222;50.872;4.312;2023-02-20T08:10:49;8.10;99.90
22112;DHT22;11222;50.872;4.312;2023-02-20T08:13:16;8.10;99.90
22112;DHT22;11222;50.872;4.312;2023-02-20T08:15:42;8.20;99.90
22112;DHT22;11222;50.872;4.312;2023-02-20T08:18:09;8.20;99.90
22112;DHT22;11222;50.872;4.312;2023-02-20T08:20:35;8.20;99.90
22112;DHT22;11222;50.872;4.312;2023-02-20T08:23:01;8.20;99.90
22112;DHT22;11222;50.872;4.312;2023-02-20T08:25:26;8.20;99.90
22112;DHT22;11222;50.872;4.312;2023-02-20T08:27:52;8.30;99.90
22112;DHT22;11222;50.872;4.312;2023-02-20T08:30:27;8.30;99.90
22112;DHT22;11222;50.872;4.312;2023-02-20T08:32:54;8.30;99.90
22112;DHT22;11222;50.872;4.312;2023-02-20T08:35:20;8.30;99.90
22112;DHT22;11222;50.872;4.312;2023-02-20T08:37:49;8.20;99.90
22112;DHT22;11222;50.872;4.312;2023-02-20T08:40:15;8.20;99.90
22112;DHT22;11222;50.872;4.312;2023-02-20T08:42:40;8.30;99.90
22112;DHT22;11222;50.872;4.312;2023-02-20T08:45:07;8.30;99.90
22112;DHT22;11222;50.872;4.312;2023-02-20T08:47:33;8.40;99.90
22112;DHT22;11222;50.872;4.312;2023-02-20T08:49:59;8.30;99.90
22112;DHT22;11222;50.872;4.312;2023-02-20T08:52:25;8.40;99.90
22112;DHT22;11222;50.872;4.312;2023-02-20T08:54:51;8.40;99.90
22112;DHT22;11222;50.872;4.312;2023-02-20T08:57:17;8.50;99.90
22112;DHT22;11222;50.872;4.312;2023-02-20T08:59:43;8.50;99.90
22112;DHT22;11222;50.872;4.312;2023-02-20T09:02:20;8.50;99.90
22112;DHT22;11222;50.872;4.312;2023-02-20T09:04:47;8.50;99.90
22112;DHT22;11222;50.872;4.312;2023-02-20T09:07:13;8.40;99.90
22112;DHT22;11222;50.872;4.312;2023-02-20T09:09:39;8.30;99.90
22112;DHT22;11222;50.872;4.312;2023-02-20T09:12:05;8.30;99.90
22112;DHT22;11222;50.872;4.312;2023-02-20T09:14:31;8.30;99.90
22112;DHT22;11222;50.872;4.312;2023-02-20T09:16:57;8.40;99.90
22112;DHT22;11222;50.872;4.312;2023-02-20T09:19:23;8.50;99.90
22112;DHT22;11222;50.872;4.312;2023-02-20T09:21:50;8.50;99.90
22112;DHT22;11222;50.872;4.312;2023-02-20T09:24:16;8.50;99.90
22112;DHT22;11222;50.872;4.312;2023-02-20T09:26:41;8.60;99.90
22112;DHT22;11222;50.872;4.312;2023-02-20T09:29:07;8.60;99.90
22112;DHT22;11222;50.872;4.312;2023-02-20T09:31:33;8.50;99.90
22112;DHT22;11222;50.872;4.312;2023-02-20T09:33:59;8.50;99.90
22112;DHT22;11222;50.872;4.312;2023-02-20T09:36:26;8.50;99.90
22112;DHT22;11222;50.872;4.312;2023-02-20T09:38:51;8.50;99.90
22112;DHT22;11222;50.872;4.312;2023-02-20T09:46:44;8.50;99.90
22112;DHT22;11222;50.872;4.312;2023-02-20T09:49:11;8.50;99.90
22112;DHT22;11222;50.872;4.312;2023-02-20T09:51:45;8.60;99.90
22112;DHT22;11222;50.872;4.312;2023-02-20T09:54:19;8.70;99.90
22112;DHT22;11222;50.872;4.312;2023-02-20T09:56:52;8.80;99.90
22112;DHT22;11222;50.872;4.312;2023-02-20T09:59:31;8.70;99.90
22112;DHT22;11222;50.872;4.312;2023-02-20T10:02:11;8.70;99.90
22112;DHT22;11222;50.872;4.312;2023-02-20T10:04:43;8.60;99.90
22112;DHT22;11222;50.872;4.312;2023-02-20T10:09:51;8.60;99.90
22112;DHT22;11222;50.872;4.312;2023-02-20T10:12:37;8.70;99.90
22112;DHT22;11222;50.872;4.312;2023-02-20T10:15:16;8.70;99.90
22112;DHT22;11222;50.872;4.312;2023-02-20T10:21:10;8.80;99.90
22112;DHT22;11222;50.872;4.312;2023-02-20T10:26:14;8.80;99.90
22112;DHT22;11222;50.872;4.312;2023-02-20T10:28:42;8.90;99.90
22112;DHT22;11222;50.872;4.312;2023-02-20T10:31:14;8.80;99.90
22112;DHT22;11222;50.872;4.312;2023-02-20T10:33:46;8.90;99.90
22112;DHT22;11222;50.872;4.312;2023-02-20T10:36:35;9.00;99.90
22112;DHT22;11222;50.872;4.312;2023-02-20T10:52:59;9.00;99.90
22112;DHT22;11222;50.872;4.312;2023-02-20T10:55:51;9.00;99.90
22112;DHT22;11222;50.872;4.312;2023-02-20T10:58:44;9.00;99.90
22112;DHT22;11222;50.872;4.312;2023-02-20T11:01:09;9.10;99.90
22112;DHT22;11222;50.872;4.312;2023-02-20T11:03:44;9.10;99.90
22112;DHT22;11222;50.872;4.312;2023-02-20T11:06:15;9.20;99.90
22112;DHT22;11222;50.872;4.312;2023-02-20T11:08:41;9.20;99.90
22112;DHT22;11222;50.872;4.312;2023-02-20T11:11:31;9.20;99.90
22112;DHT22;11222;50.872;4.312;2023-02-20T11:13:59;9.10;99.90
22112;DHT22;11222;50.872;4.312;2023-02-20T11:16:31;9.00;99.90
22112;DHT22;11222;50.872;4.312;2023-02-20T11:19:08;8.90;99.90
22112;DHT22;11222;50.872;4.312;2023-02-20T11:21:45;9.00;99.90
22112;DHT22;11222;50.872;4.312;2023-02-20T11:24:35;9.00;99.90
22112;DHT22;11222;50.872;4.312;2023-02-20T11:27:16;8.90;99.90
22112;DHT22;11222;50.872;4.312;2023-02-20T11:30:02;8.90;99.90
22112;DHT22;11222;50.872;4.312;2023-02-20T11:32:35;8.90;99.90
22112;DHT22;11222;50.872;4.312;2023-02-20T11:35:13;9.00;99.90
22112;DHT22;11222;50.872;4.312;2023-02-20T11:37:40;9.10;99.90
22112;DHT22;11222;50.872;4.312;2023-02-20T11:40:27;9.10;99.90
22112;DHT22;11222;50.872;4.312;2023-02-20T11:42:53;9.10;99.90
22112;DHT22;11222;50.872;4.312;2023-02-20T11:45:24;9.10;99.90
22112;DHT22;11222;50.872;4.312;2023-02-20T11:48:07;9.10;99.90
22112;DHT22;11222;50.872;4.312;2023-02-20T11:50:54;9.20;99.90
22112;DHT22;11222;50.872;4.312;2023-02-20T11:53:25;9.20;99.90
22112;DHT22;11222;50.872;4.312;2023-02-20T11:56:15;9.20;99.90
22112;DHT22;11222;50.872;4.312;2023-02-20T11:58:42;9.20;99.90
22112;DHT22;11222;50.872;4.312;2023-02-20T12:01:29;9.20;99.90
22112;DHT22;11222;50.872;4.312;2023-02-20T12:03:56;9.20;99.90
22112;DHT22;11222;50.872;4.312;2023-02-20T12:09:04;9.30;99.90
22112;DHT22;11222;50.872;4.312;2023-02-20T12:11:31;9.30;99.90
22112;DHT22;11222;50.872;4.312;2023-02-20T12:13:58;9.30;99.90
22112;DHT22;11222;50.872;4.312;2023-02-20T12:19:30;9.30;99.90
22112;DHT22;11222;50.872;4.312;2023-02-20T12:24:36;9.30;99.90
22112;DHT22;11222;50.872;4.312;2023-02-20T12:30:38;9.30;99.90
22112;DHT22;11222;50.872;4.312;2023-02-20T12:35:56;9.60;99.90
22112;DHT22;11222;50.872;4.312;2023-02-20T12:46:22;9.60;99.90
22112;DHT22;11222;50.872;4.312;2023-02-20T12:54:43;9.60;99.90
22112;DHT22;11222;50.872;4.312;2023-02-20T12:57:17;9.90;99.90
22112;DHT22;11222;50.872;4.312;2023-02-20T12:59:58;10.00;99.90
22112;DHT22;11222;50.872;4.312;2023-02-20T13:02:41;9.90;99.90
22112;DHT22;11222;50.872;4.312;2023-02-20T13:05:17;9.80;99.90
22112;DHT22;11222;50.872;4.312;2023-02-20T13:07:46;9.70;99.90
22112;DHT22;11222;50.872;4.312;2023-02-20T13:10:24;9.60;99.90
22112;DHT22;11222;50.872;4.312;2023-02-20T13:12:57;9.70;99.90
22112;DHT22;11222;50.872;4.312;2023-02-20T13:15:35;9.70;99.90
22112;DHT22;11222;50.872;4.312;2023-02-20T13:21:09;9.60;99.90
22112;DHT22;11222;50.872;4.312;2023-02-20T13:23:37;9.70;99.90
22112;DHT22;11222;50.872;4.312;2023-02-20T13:28:52;9.60;99.90
22112;DHT22;11222;50.872;4.312;2023-02-20T13:31:24;9.60;99.90
22112;DHT22;11222;50.872;4.312;2023-02-20T13:54:58;9.70;99.90
22112;DHT22;11222;50.872;4.312;2023-02-20T13:57:25;9.60;99.90
22112;DHT22;11222;50.872;4.312;2023-02-20T14:00:02;9.60;99.90
22112;DHT22;11222;50.872;4.312;2023-02-20T14:02:40;9.70;99.90
22112;DHT22;11222;50.872;4.312;2023-02-20T14:05:17;9.70;99.90
22112;DHT22;11222;50.872;4.312;2023-02-20T14:07:45;9.70;99.90
22112;DHT22;11222;50.872;4.312;2023-02-20T14:10:27;9.70;99.90
22112;DHT22;11222;50.872;4.312;2023-02-20T14:12:59;9.70;99.90
22112;DHT22;11222;50.872;4.312;2023-02-20T14:15:28;9.70;99.90
22112;DHT22;11222;50.872;4.312;2023-02-20T14:17:55;9.80;99.90
22112;DHT22;11222;50.872;4.312;2023-02-20T14:20:32;9.90;99.90
22112;DHT22;11222;50.872;4.312;2023-02-20T14:23:13;9.90;99.90
22112;DHT22;11222;50.872;4.312;2023-02-20T14:25:41;9.90;99.90
22112;DHT22;11222;50.872;4.312;2023-02-20T14:28:12;9.80;99.90
22112;DHT22;11222;50.872;4.312;2023-02-20T14:30:38;9.80;99.90
22112;DHT22;11222;50.872;4.312;2023-02-20T14:33:19;9.90;99.90
22112;DHT22;11222;50.872;4.312;2023-02-20T14:41:53;9.90;99.90
22112;DHT22;11222;50.872;4.312;2023-02-20T14:44:19;9.90;99.90
22112;DHT22;11222;50.872;4.312;2023-02-20T14:46:46;9.90;99.90
22112;DHT22;11222;50.872;4.312;2023-02-20T14:49:23;9.90;99.90
22112;DHT22;11222;50.872;4.312;2023-02-20T14:51:49;10.00;99.90
22112;DHT22;11222;50.872;4.312;2023-02-20T14:54:23;9.90;99.90
22112;DHT22;11222;50.872;4.312;2023-02-20T14:56:50;10.00;99.90
22112;DHT22;11222;50.872;4.312;2023-02-20T14:59:30;10.00;99.90
22112;DHT22;11222;50.872;4.312;2023-02-20T15:05:08;10.00;99.90
22112;DHT22;11222;50.872;4.312;2023-02-20T15:07:37;9.90;99.90
22112;DHT22;11222;50.872;4.312;2023-02-20T15:10:27;10.00;99.90
22112;DHT22;11222;50.872;4.312;2023-02-20T15:13:02;10.00;99.90
22112;DHT22;11222;50.872;4.312;2023-02-20T15:15:34;10.00;99.90
22112;DHT22;11222;50.872;4.312;2023-02-20T15:18:15;10.00;99.90
22112;DHT22;11222;50.872;4.312;2023-02-20T15:20:46;9.90;99.90
22112;DHT22;11222;50.872;4.312;2023-02-20T15:25:41;9.90;99.90
22112;DHT22;11222;50.872;4.312;2023-02-20T15:28:13;9.90;99.90
22112;DHT22;11222;50.872;4.312;2023-02-20T15:33:41;9.90;99.90
22112;DHT22;11222;50.872;4.312;2023-02-20T15:36:15;9.80;99.90
22112;DHT22;11222;50.872;4.312;2023-02-20T15:38:42;9.90;99.90
22112;DHT22;11222;50.872;4.312;2023-02-20T15:41:10;9.90;99.90
22112;DHT22;11222;50.872;4.312;2023-02-20T15:43:36;10.10;99.90
22112;DHT22;11222;50.872;4.312;2023-02-20T15:46:01;10.10;99.90
22112;DHT22;11222;50.872;4.312;2023-02-20T15:48:27;10.10;99.90
22112;DHT22;11222;50.872;4.312;2023-02-20T15:50:53;10.00;99.90
22112;DHT22;11222;50.872;4.312;2023-02-20T15:53:25;10.00;99.90
22112;DHT22;11222;50.872;4.312;2023-02-20T15:55:53;10.00;99.90
22112;DHT22;11222;50.872;4.312;2023-02-20T15:58:28;9.90;99.90
22112;DHT22;11222;50.872;4.312;2023-02-20T16:00:55;9.90;99.90
22112;DHT22;11222;50.872;4.312;2023-02-20T16:03:22;9.90;99.90
22112;DHT22;11222;50.872;4.312;2023-02-20T16:05:47;9.90;99.90
22112;DHT22;11222;50.872;4.312;2023-02-20T16:08:13;9.90;99.90
22112;DHT22;11222;50.872;4.312;2023-02-20T16:10:39;9.80;99.90
22112;DHT22;11222;50.872;4.312;2023-02-20T16:13:05;9.80;99.90
22112;DHT22;11222;50.872;4.312;2023-02-20T16:15:30;9.80;99.90
22112;DHT22;11222;50.872;4.312;2023-02-20T16:17:56;9.80;99.90
22112;DHT22;11222;50.872;4.312;2023-02-20T16:20:25;9.90;99.90
22112;DHT22;11222;50.872;4.312;2023-02-20T16:22:52;9.90;99.90
22112;DHT22;11222;50.872;4.312;2023-02-20T16:25:19;9.90;99.90
22112;DHT22;11222;50.872;4.312;2023-02-20T16:27:47;9.90;99.90
22112;DHT22;11222;50.872;4.312;2023-02-20T16:30:31;9.90;99.90
22112;DHT22;11222;50.872;4.312;2023-02-20T16:33:14;9.90;99.90
22112;DHT22;11222;50.872;4.312;2023-02-20T16:35:40;9.90;99.90
22112;DHT22;11222;50.872;4.312;2023-02-20T16:38:06;9.90;99.90
22112;DHT22;11222;50.872;4.312;2023-02-20T16:40:31;9.90;99.90
22112;DHT22;11222;50.872;4.312;2023-02-20T16:42:57;9.90;99.90
22112;DHT22;11222;50.872;4.312;2023-02-20T16:45:23;9.90;99.90
22112;DHT22;11222;50.872;4.312;2023-02-20T16:47:50;9.90;99.90
22112;DHT22;11222;50.872;4.312;2023-02-20T16:50:19;9.70;99.90
22112;DHT22;11222;50.872;4.312;2023-02-20T16:52:49;9.80;99.90
22112;DHT22;11222;50.872;4.312;2023-02-20T16:55:29;9.70;99.90
22112;DHT22;11222;50.872;4.312;2023-02-20T16:57:55;9.70;99.90
22112;DHT22;11222;50.872;4.312;2023-02-20T17:00:25;9.60;99.90
22112;DHT22;11222;50.872;4.312;2023-02-20T17:02:52;9.60;99.90
22112;DHT22;11222;50.872;4.312;2023-02-20T17:05:20;9.60;99.90
22112;DHT22;11222;50.872;4.312;2023-02-20T17:07:46;9.50;99.90
22112;DHT22;11222;50.872;4.312;2023-02-20T17:10:12;9.50;99.90
22112;DHT22;11222;50.872;4.312;2023-02-20T17:12:37;9.60;99.90
22112;DHT22;11222;50.872;4.312;2023-02-20T17:15:05;9.60;99.90
22112;DHT22;11222;50.872;4.312;2023-02-20T17:17:32;9.60;99.90
22112;DHT22;11222;50.872;4.312;2023-02-20T17:19:58;9.60;99.90
22112;DHT22;11222;50.872;4.312;2023-02-20T17:22:25;9.60;99.90
22112;DHT22;11222;50.872;4.312;2023-02-20T17:24:51;9.60;99.90
22112;DHT22;11222;50.872;4.312;2023-02-20T17:27:17;9.60;99.90
22112;DHT22;11222;50.872;4.312;2023-02-20T17:29:44;9.50;99.90
22112;DHT22;11222;50.872;4.312;2023-02-20T17:32:11;9.50;99.90
22112;DHT22;11222;50.872;4.312;2023-02-20T17:34:37;9.50;99.90
22112;DHT22;11222;50.872;4.312;2023-02-20T17:37:04;9.50;99.90
22112;DHT22;11222;50.872;4.312;2023-02-20T17:39:30;9.50;99.90
22112;DHT22;11222;50.872;4.312;2023-02-20T17:41:56;9.50;99.90
22112;DHT22;11222;50.872;4.312;2023-02-20T17:44:24;9.40;99.90
22112;DHT22;11222;50.872;4.312;2023-02-20T17:46:52;9.40;99.90
22112;DHT22;11222;50.872;4.312;2023-02-20T17:49:19;9.40;99.90
22112;DHT22;11222;50.872;4.312;2023-02-20T17:51:45;9.40;99.90
22112;DHT22;11222;50.872;4.312;2023-02-20T17:54:11;9.50;99.90
22112;DHT22;11222;50.872;4.312;2023-02-20T17:56:42;9.50;99.90
22112;DHT22;11222;50.872;4.312;2023-02-20T17:59:08;9.50;99.90
22112;DHT22;11222;50.872;4.312;2023-02-20T18:01:34;9.40;99.90
22112;DHT22;11222;50.872;4.312;2023-02-20T18:03:59;9.50;99.90
22112;DHT22;11222;50.872;4.312;2023-02-20T18:06:25;9.50;99.90
22112;DHT22;11222;50.872;4.312;2023-02-20T18:08:51;9.40;99.90